Terminal Aerodrome Forecast
Issued by NWS

Home | Current Version | Previous Version | Text Only | Print | Product List | Glossary On
Versions: 1 2 3 4 5 6 7 8 9 10 11 12 13 14 15 16 17 18 19 20 21 22 23 24 25 26 27 28 29 30 31 32 33 34 35
000
FTUS45 KBYZ 251120
TAFLVM
TAF
KLVM 251120Z 2512/2612 27010KT P6SM -RASN SCT015 OVC030
      TEMPO 2512/2514 3SM -RASN BR SCT004 OVC012
     FM251500 VRB05KT P6SM VCSH FEW015 SCT040 BKN080
     FM252000 28010KT P6SM VCSH SCT040 BKN200
     FM260200 VRB05KT P6SM FEW040 SCT200
     FM261000 08010KT 3SM -RASN BR OVC013=

USA.gov is the U.S. government's official web portal to all federal, state and local government web resources and services.